sensor_id;sensor_type;location;lat;lon;timestamp;P1;durP1;ratioP1;P2;durP2;ratioP2
52974;SDS011;38839;45.186;5.720;2023-01-19T00:01:23;6.70;;;3.50;;
52974;SDS011;38839;45.186;5.720;2023-01-19T00:03:49;5.72;;;2.88;;
52974;SDS011;38839;45.186;5.720;2023-01-19T00:06:15;5.25;;;3.40;;
52974;SDS011;38839;45.186;5.720;2023-01-19T00:08:41;6.38;;;3.85;;
52974;SDS011;38839;45.186;5.720;2023-01-19T00:11:09;5.90;;;3.83;;
52974;SDS011;38839;45.186;5.720;2023-01-19T00:13:36;6.43;;;3.72;;
52974;SDS011;38839;45.186;5.720;2023-01-19T00:16:02;8.35;;;3.38;;
52974;SDS011;38839;45.186;5.720;2023-01-19T00:18:27;4.47;;;2.92;;
52974;SDS011;38839;45.186;5.720;2023-01-19T00:20:53;7.40;;;3.63;;
52974;SDS011;38839;45.186;5.720;2023-01-19T00:23:18;5.90;;;3.03;;
52974;SDS011;38839;45.186;5.720;2023-01-19T00:25:44;5.63;;;3.65;;
52974;SDS011;38839;45.186;5.720;2023-01-19T00:28:14;7.53;;;3.53;;
52974;SDS011;38839;45.186;5.720;2023-01-19T00:30:41;7.35;;;3.47;;
52974;SDS011;38839;45.186;5.720;2023-01-19T00:33:06;5.07;;;3.35;;
52974;SDS011;38839;45.186;5.720;2023-01-19T00:35:33;6.25;;;3.58;;
52974;SDS011;38839;45.186;5.720;2023-01-19T00:37:59;5.78;;;3.33;;
52974;SDS011;38839;45.186;5.720;2023-01-19T00:40:25;5.93;;;3.58;;
52974;SDS011;38839;45.186;5.720;2023-01-19T00:42:50;4.80;;;3.50;;
52974;SDS011;38839;45.186;5.720;2023-01-19T00:45:17;6.57;;;3.75;;
52974;SDS011;38839;45.186;5.720;2023-01-19T00:47:45;6.15;;;3.50;;
52974;SDS011;38839;45.186;5.720;2023-01-19T00:50:12;7.03;;;3.42;;
52974;SDS011;38839;45.186;5.720;2023-01-19T00:52:38;5.15;;;3.53;;
52974;SDS011;38839;45.186;5.720;2023-01-19T00:55:05;5.35;;;3.47;;
52974;SDS011;38839;45.186;5.720;2023-01-19T00:57:32;6.25;;;3.20;;
52974;SDS011;38839;45.186;5.720;2023-01-19T00:59:57;10.55;;;3.47;;
52974;SDS011;38839;45.186;5.720;2023-01-19T01:02:23;6.38;;;3.83;;
52974;SDS011;38839;45.186;5.720;2023-01-19T01:04:48;5.68;;;3.72;;
52974;SDS011;38839;45.186;5.720;2023-01-19T01:09:44;5.97;;;3.60;;
52974;SDS011;38839;45.186;5.720;2023-01-19T01:12:09;6.05;;;3.00;;
52974;SDS011;38839;45.186;5.720;2023-01-19T01:14:35;8.32;;;3.92;;
52974;SDS011;38839;45.186;5.720;2023-01-19T01:17:00;5.18;;;3.33;;
52974;SDS011;38839;45.186;5.720;2023-01-19T01:19:25;5.60;;;3.47;;
52974;SDS011;38839;45.186;5.720;2023-01-19T01:21:51;8.93;;;3.58;;
52974;SDS011;38839;45.186;5.720;2023-01-19T01:24:16;6.60;;;3.17;;
52974;SDS011;38839;45.186;5.720;2023-01-19T01:26:42;5.50;;;3.67;;
52974;SDS011;38839;45.186;5.720;2023-01-19T01:29:08;5.03;;;3.13;;
52974;SDS011;38839;45.186;5.720;2023-01-19T01:31:33;5.05;;;3.20;;
52974;SDS011;38839;45.186;5.720;2023-01-19T01:33:59;7.80;;;3.35;;
52974;SDS011;38839;45.186;5.720;2023-01-19T01:36:25;6.85;;;3.67;;
52974;SDS011;38839;45.186;5.720;2023-01-19T01:38:53;5.78;;;2.90;;
52974;SDS011;38839;45.186;5.720;2023-01-19T01:41:18;6.90;;;3.47;;
52974;SDS011;38839;45.186;5.720;2023-01-19T01:46:14;6.63;;;3.50;;
52974;SDS011;38839;45.186;5.720;2023-01-19T01:48:42;5.75;;;3.13;;
52974;SDS011;38839;45.186;5.720;2023-01-19T01:51:24;5.60;;;3.53;;
52974;SDS011;38839;45.186;5.720;2023-01-19T01:53:59;5.25;;;3.53;;
52974;SDS011;38839;45.186;5.720;2023-01-19T01:56:29;6.32;;;3.72;;
52974;SDS011;38839;45.186;5.720;2023-01-19T01:58:58;4.78;;;3.08;;
52974;SDS011;38839;45.186;5.720;2023-01-19T02:01:27;6.38;;;3.33;;
52974;SDS011;38839;45.186;5.720;2023-01-19T02:04:11;5.28;;;3.17;;
52974;SDS011;38839;45.186;5.720;2023-01-19T02:06:36;5.10;;;3.30;;
52974;SDS011;38839;45.186;5.720;2023-01-19T02:09:20;5.95;;;3.47;;
52974;SDS011;38839;45.186;5.720;2023-01-19T02:12:06;4.50;;;2.92;;
52974;SDS011;38839;45.186;5.720;2023-01-19T02:14:50;5.57;;;3.50;;
52974;SDS011;38839;45.186;5.720;2023-01-19T02:17:16;4.55;;;2.80;;
52974;SDS011;38839;45.186;5.720;2023-01-19T02:19:41;3.72;;;2.67;;
52974;SDS011;38839;45.186;5.720;2023-01-19T02:24:39;3.50;;;2.60;;
52974;SDS011;38839;45.186;5.720;2023-01-19T02:27:05;6.57;;;2.90;;
52974;SDS011;38839;45.186;5.720;2023-01-19T02:29:31;5.15;;;2.50;;
52974;SDS011;38839;45.186;5.720;2023-01-19T02:31:58;5.63;;;2.65;;
52974;SDS011;38839;45.186;5.720;2023-01-19T02:34:24;4.80;;;2.80;;
52974;SDS011;38839;45.186;5.720;2023-01-19T02:37:10;4.55;;;2.53;;
52974;SDS011;38839;45.186;5.720;2023-01-19T02:39:38;5.55;;;2.38;;
52974;SDS011;38839;45.186;5.720;2023-01-19T02:42:10;2.75;;;2.08;;
52974;SDS011;38839;45.186;5.720;2023-01-19T02:44:38;3.63;;;2.33;;
52974;SDS011;38839;45.186;5.720;2023-01-19T02:47:07;4.28;;;1.95;;
52974;SDS011;38839;45.186;5.720;2023-01-19T02:49:33;4.03;;;2.10;;
52974;SDS011;38839;45.186;5.720;2023-01-19T02:51:58;3.92;;;2.20;;
52974;SDS011;38839;45.186;5.720;2023-01-19T02:59:58;3.90;;;1.92;;
52974;SDS011;38839;45.186;5.720;2023-01-19T03:08:25;2.47;;;1.65;;
52974;SDS011;38839;45.186;5.720;2023-01-19T03:11:04;3.13;;;1.98;;
52974;SDS011;38839;45.186;5.720;2023-01-19T03:13:50;3.47;;;2.00;;
52974;SDS011;38839;45.186;5.720;2023-01-19T03:19:11;3.25;;;1.90;;
52974;SDS011;38839;45.186;5.720;2023-01-19T03:21:42;3.38;;;1.65;;
52974;SDS011;38839;45.186;5.720;2023-01-19T03:24:11;4.57;;;2.00;;
52974;SDS011;38839;45.186;5.720;2023-01-19T03:26:40;4.45;;;2.20;;
52974;SDS011;38839;45.186;5.720;2023-01-19T03:29:09;3.22;;;2.40;;
52974;SDS011;38839;45.186;5.720;2023-01-19T03:31:39;4.60;;;2.20;;
52974;SDS011;38839;45.186;5.720;2023-01-19T03:34:08;2.92;;;2.20;;
52974;SDS011;38839;45.186;5.720;2023-01-19T03:36:39;4.80;;;2.75;;
52974;SDS011;38839;45.186;5.720;2023-01-19T03:39:10;5.88;;;3.35;;
52974;SDS011;38839;45.186;5.720;2023-01-19T03:41:39;5.07;;;2.80;;
52974;SDS011;38839;45.186;5.720;2023-01-19T03:44:06;5.50;;;2.72;;
52974;SDS011;38839;45.186;5.720;2023-01-19T03:46:32;5.57;;;3.75;;
52974;SDS011;38839;45.186;5.720;2023-01-19T03:48:58;6.50;;;3.53;;
52974;SDS011;38839;45.186;5.720;2023-01-19T03:51:24;5.03;;;3.65;;
52974;SDS011;38839;45.186;5.720;2023-01-19T03:53:50;6.15;;;3.58;;
52974;SDS011;38839;45.186;5.720;2023-01-19T03:56:20;5.18;;;3.83;;
52974;SDS011;38839;45.186;5.720;2023-01-19T03:58:48;5.90;;;3.58;;
52974;SDS011;38839;45.186;5.720;2023-01-19T04:01:14;5.63;;;3.78;;
52974;SDS011;38839;45.186;5.720;2023-01-19T04:03:41;8.05;;;3.65;;
52974;SDS011;38839;45.186;5.720;2023-01-19T04:06:07;7.95;;;4.10;;
52974;SDS011;38839;45.186;5.720;2023-01-19T04:08:33;5.95;;;3.92;;
52974;SDS011;38839;45.186;5.720;2023-01-19T04:10:58;6.25;;;3.85;;
52974;SDS011;38839;45.186;5.720;2023-01-19T04:13:24;6.47;;;4.00;;
52974;SDS011;38839;45.186;5.720;2023-01-19T04:15:52;5.18;;;3.72;;
52974;SDS011;38839;45.186;5.720;2023-01-19T04:18:17;7.53;;;4.10;;
52974;SDS011;38839;45.186;5.720;2023-01-19T04:20:43;6.78;;;3.83;;
52974;SDS011;38839;45.186;5.720;2023-01-19T04:23:09;5.65;;;3.35;;
52974;SDS011;38839;45.186;5.720;2023-01-19T04:25:34;6.88;;;3.85;;
52974;SDS011;38839;45.186;5.720;2023-01-19T04:27:59;7.38;;;4.18;;
52974;SDS011;38839;45.186;5.720;2023-01-19T04:30:25;5.85;;;3.47;;
52974;SDS011;38839;45.186;5.720;2023-01-19T04:32:51;6.97;;;3.30;;
52974;SDS011;38839;45.186;5.720;2023-01-19T04:35:17;7.95;;;3.80;;
52974;SDS011;38839;45.186;5.720;2023-01-19T04:37:43;6.93;;;3.65;;
52974;SDS011;38839;45.186;5.720;2023-01-19T04:40:09;6.90;;;3.92;;
52974;SDS011;38839;45.186;5.720;2023-01-19T04:42:35;7.80;;;4.00;;
52974;SDS011;38839;45.186;5.720;2023-01-19T04:45:00;5.55;;;3.53;;
52974;SDS011;38839;45.186;5.720;2023-01-19T04:47:25;4.93;;;2.95;;
52974;SDS011;38839;45.186;5.720;2023-01-19T04:49:51;6.10;;;3.35;;
52974;SDS011;38839;45.186;5.720;2023-01-19T04:52:16;5.53;;;3.40;;
52974;SDS011;38839;45.186;5.720;2023-01-19T04:54:41;4.63;;;3.08;;
52974;SDS011;38839;45.186;5.720;2023-01-19T04:57:07;5.20;;;2.90;;
52974;SDS011;38839;45.186;5.720;2023-01-19T04:59:32;5.43;;;3.00;;
52974;SDS011;38839;45.186;5.720;2023-01-19T05:01:57;5.07;;;2.40;;
52974;SDS011;38839;45.186;5.720;2023-01-19T05:04:23;6.43;;;2.72;;
52974;SDS011;38839;45.186;5.720;2023-01-19T05:06:49;3.63;;;2.60;;
52974;SDS011;38839;45.186;5.720;2023-01-19T05:09:15;4.35;;;2.42;;
52974;SDS011;38839;45.186;5.720;2023-01-19T05:11:41;3.67;;;2.58;;
52974;SDS011;38839;45.186;5.720;2023-01-19T05:14:06;6.97;;;2.83;;
52974;SDS011;38839;45.186;5.720;2023-01-19T05:16:32;4.97;;;2.70;;
52974;SDS011;38839;45.186;5.720;2023-01-19T05:18:58;4.80;;;2.88;;
52974;SDS011;38839;45.186;5.720;2023-01-19T05:21:24;3.85;;;2.47;;
52974;SDS011;38839;45.186;5.720;2023-01-19T05:23:49;3.58;;;2.33;;
52974;SDS011;38839;45.186;5.720;2023-01-19T05:26:14;4.68;;;2.30;;
52974;SDS011;38839;45.186;5.720;2023-01-19T05:28:40;5.70;;;2.80;;
52974;SDS011;38839;45.186;5.720;2023-01-19T05:31:06;5.30;;;3.03;;
52974;SDS011;38839;45.186;5.720;2023-01-19T05:33:31;5.05;;;2.53;;
52974;SDS011;38839;45.186;5.720;2023-01-19T05:35:56;4.72;;;2.72;;
52974;SDS011;38839;45.186;5.720;2023-01-19T05:38:22;5.05;;;2.58;;
52974;SDS011;38839;45.186;5.720;2023-01-19T05:40:48;4.28;;;2.05;;
52974;SDS011;38839;45.186;5.720;2023-01-19T05:43:13;3.67;;;2.40;;
52974;SDS011;38839;45.186;5.720;2023-01-19T05:45:39;3.97;;;2.30;;
52974;SDS011;38839;45.186;5.720;2023-01-19T05:48:08;4.00;;;2.60;;
52974;SDS011;38839;45.186;5.720;2023-01-19T05:50:33;3.63;;;2.58;;
52974;SDS011;38839;45.186;5.720;2023-01-19T05:52:59;4.10;;;2.45;;
52974;SDS011;38839;45.186;5.720;2023-01-19T05:55:25;4.03;;;2.17;;
52974;SDS011;38839;45.186;5.720;2023-01-19T05:57:52;4.93;;;2.85;;
52974;SDS011;38839;45.186;5.720;2023-01-19T06:00:18;4.25;;;2.70;;
52974;SDS011;38839;45.186;5.720;2023-01-19T06:02:44;5.13;;;2.80;;
52974;SDS011;38839;45.186;5.720;2023-01-19T06:05:10;6.25;;;2.60;;
52974;SDS011;38839;45.186;5.720;2023-01-19T06:07:36;6.38;;;3.00;;
52974;SDS011;38839;45.186;5.720;2023-01-19T06:10:01;5.80;;;3.03;;
52974;SDS011;38839;45.186;5.720;2023-01-19T06:12:26;4.82;;;2.53;;
52974;SDS011;38839;45.186;5.720;2023-01-19T06:14:52;6.43;;;2.38;;
52974;SDS011;38839;45.186;5.720;2023-01-19T06:17:17;5.80;;;2.75;;
52974;SDS011;38839;45.186;5.720;2023-01-19T06:19:44;6.65;;;3.08;;
52974;SDS011;38839;45.186;5.720;2023-01-19T06:22:09;4.40;;;2.33;;
52974;SDS011;38839;45.186;5.720;2023-01-19T06:24:35;5.90;;;2.80;;
52974;SDS011;38839;45.186;5.720;2023-01-19T06:27:00;3.17;;;2.40;;
52974;SDS011;38839;45.186;5.720;2023-01-19T06:29:26;3.75;;;2.22;;
52974;SDS011;38839;45.186;5.720;2023-01-19T06:31:51;3.38;;;2.25;;
52974;SDS011;38839;45.186;5.720;2023-01-19T06:34:17;5.32;;;2.20;;
52974;SDS011;38839;45.186;5.720;2023-01-19T06:36:43;4.35;;;2.83;;
52974;SDS011;38839;45.186;5.720;2023-01-19T06:39:10;4.68;;;2.50;;
52974;SDS011;38839;45.186;5.720;2023-01-19T06:41:36;4.82;;;2.70;;
52974;SDS011;38839;45.186;5.720;2023-01-19T06:44:02;3.35;;;2.35;;
52974;SDS011;38839;45.186;5.720;2023-01-19T06:46:28;4.63;;;2.35;;
52974;SDS011;38839;45.186;5.720;2023-01-19T06:48:53;6.30;;;3.00;;
52974;SDS011;38839;45.186;5.720;2023-01-19T06:51:20;5.57;;;3.05;;
52974;SDS011;38839;45.186;5.720;2023-01-19T06:53:45;5.95;;;3.45;;
52974;SDS011;38839;45.186;5.720;2023-01-19T06:56:11;7.50;;;3.90;;
52974;SDS011;38839;45.186;5.720;2023-01-19T06:58:36;5.25;;;3.25;;
52974;SDS011;38839;45.186;5.720;2023-01-19T07:01:03;7.55;;;3.45;;
52974;SDS011;38839;45.186;5.720;2023-01-19T07:03:29;5.50;;;3.58;;
52974;SDS011;38839;45.186;5.720;2023-01-19T07:05:55;6.00;;;3.03;;
52974;SDS011;38839;45.186;5.720;2023-01-19T07:08:21;6.00;;;3.60;;
52974;SDS011;38839;45.186;5.720;2023-01-19T07:10:47;5.20;;;3.30;;
52974;SDS011;38839;45.186;5.720;2023-01-19T07:13:13;4.32;;;2.85;;
52974;SDS011;38839;45.186;5.720;2023-01-19T07:15:39;5.60;;;3.60;;
52974;SDS011;38839;45.186;5.720;2023-01-19T07:18:05;6.45;;;3.80;;
52974;SDS011;38839;45.186;5.720;2023-01-19T07:20:32;6.57;;;3.13;;
52974;SDS011;38839;45.186;5.720;2023-01-19T07:22:58;4.32;;;2.80;;
52974;SDS011;38839;45.186;5.720;2023-01-19T07:25:25;4.13;;;2.80;;
52974;SDS011;38839;45.186;5.720;2023-01-19T07:27:51;3.97;;;2.53;;
52974;SDS011;38839;45.186;5.720;2023-01-19T07:30:16;3.95;;;2.60;;
52974;SDS011;38839;45.186;5.720;2023-01-19T07:32:42;4.82;;;2.90;;
52974;SDS011;38839;45.186;5.720;2023-01-19T07:35:08;5.10;;;2.47;;
52974;SDS011;38839;45.186;5.720;2023-01-19T07:37:33;5.45;;;2.80;;
52974;SDS011;38839;45.186;5.720;2023-01-19T07:39:59;5.22;;;2.63;;
52974;SDS011;38839;45.186;5.720;2023-01-19T07:42:24;3.80;;;2.20;;
52974;SDS011;38839;45.186;5.720;2023-01-19T07:44:50;4.55;;;2.58;;
52974;SDS011;38839;45.186;5.720;2023-01-19T07:47:15;4.25;;;2.30;;
52974;SDS011;38839;45.186;5.720;2023-01-19T07:49:40;4.25;;;2.35;;
52974;SDS011;38839;45.186;5.720;2023-01-19T07:52:06;3.33;;;2.17;;
52974;SDS011;38839;45.186;5.720;2023-01-19T07:54:32;5.47;;;2.47;;
52974;SDS011;38839;45.186;5.720;2023-01-19T07:56:57;3.85;;;2.22;;
52974;SDS011;38839;45.186;5.720;2023-01-19T07:59:24;5.53;;;2.20;;
52974;SDS011;38839;45.186;5.720;2023-01-19T08:01:50;5.30;;;2.78;;
52974;SDS011;38839;45.186;5.720;2023-01-19T08:04:16;5.05;;;2.40;;
52974;SDS011;38839;45.186;5.720;2023-01-19T08:06:42;3.85;;;2.17;;
52974;SDS011;38839;45.186;5.720;2023-01-19T08:09:09;5.80;;;2.63;;
52974;SDS011;38839;45.186;5.720;2023-01-19T08:11:35;8.45;;;3.05;;
52974;SDS011;38839;45.186;5.720;2023-01-19T08:14:01;8.07;;;3.15;;
52974;SDS011;38839;45.186;5.720;2023-01-19T08:16:26;6.75;;;3.55;;
52974;SDS011;38839;45.186;5.720;2023-01-19T08:18:52;6.70;;;3.50;;
52974;SDS011;38839;45.186;5.720;2023-01-19T08:21:17;6.80;;;4.00;;
52974;SDS011;38839;45.186;5.720;2023-01-19T08:23:42;7.38;;;3.53;;
52974;SDS011;38839;45.186;5.720;2023-01-19T08:29:06;6.22;;;3.17;;
52974;SDS011;38839;45.186;5.720;2023-01-19T08:31:31;6.60;;;3.53;;
52974;SDS011;38839;45.186;5.720;2023-01-19T08:33:57;6.00;;;3.50;;
52974;SDS011;38839;45.186;5.720;2023-01-19T08:36:22;5.43;;;3.40;;
52974;SDS011;38839;45.186;5.720;2023-01-19T08:38:49;5.72;;;3.47;;
52974;SDS011;38839;45.186;5.720;2023-01-19T08:41:14;7.88;;;3.67;;
52974;SDS011;38839;45.186;5.720;2023-01-19T08:43:40;10.82;;;3.90;;
52974;SDS011;38839;45.186;5.720;2023-01-19T13:15:46;4.78;;;2.08;;
52974;SDS011;38839;45.186;5.720;2023-01-19T13:18:22;3.47;;;2.10;;
52974;SDS011;38839;45.186;5.720;2023-01-19T13:20:57;3.28;;;2.20;;
52974;SDS011;38839;45.186;5.720;2023-01-19T13:23:27;3.60;;;2.47;;
52974;SDS011;38839;45.186;5.720;2023-01-19T13:26:16;3.67;;;2.40;;
52974;SDS011;38839;45.186;5.720;2023-01-19T13:28:47;3.90;;;2.35;;
52974;SDS011;38839;45.186;5.720;2023-01-19T13:31:16;3.58;;;2.17;;
52974;SDS011;38839;45.186;5.720;2023-01-19T13:33:44;3.67;;;2.20;;
52974;SDS011;38839;45.186;5.720;2023-01-19T13:38:51;3.15;;;2.17;;
52974;SDS011;38839;45.186;5.720;2023-01-19T13:41:19;2.60;;;1.92;;
52974;SDS011;38839;45.186;5.720;2023-01-19T13:48:57;5.00;;;2.40;;
52974;SDS011;38839;45.186;5.720;2023-01-19T13:51:26;3.75;;;2.05;;
52974;SDS011;38839;45.186;5.720;2023-01-19T13:54:00;3.28;;;2.08;;
52974;SDS011;38839;45.186;5.720;2023-01-19T13:56:26;4.18;;;2.20;;
52974;SDS011;38839;45.186;5.720;2023-01-19T13:58:57;4.95;;;2.30;;
52974;SDS011;38839;45.186;5.720;2023-01-19T14:01:22;5.15;;;2.15;;
52974;SDS011;38839;45.186;5.720;2023-01-19T14:03:47;3.50;;;2.28;;
52974;SDS011;38839;45.186;5.720;2023-01-19T14:06:23;4.57;;;2.28;;
52974;SDS011;38839;45.186;5.720;2023-01-19T14:11:32;4.13;;;2.45;;
52974;SDS011;38839;45.186;5.720;2023-01-19T14:13:58;4.88;;;2.63;;
52974;SDS011;38839;45.186;5.720;2023-01-19T14:16:23;4.18;;;2.78;;
52974;SDS011;38839;45.186;5.720;2023-01-19T14:18:57;5.13;;;2.90;;
52974;SDS011;38839;45.186;5.720;2023-01-19T14:21:35;3.35;;;2.40;;
52974;SDS011;38839;45.186;5.720;2023-01-19T14:24:08;5.70;;;2.67;;
52974;SDS011;38839;45.186;5.720;2023-01-19T14:26:47;7.60;;;2.88;;
52974;SDS011;38839;45.186;5.720;2023-01-19T14:32:34;3.67;;;2.17;;
52974;SDS011;38839;45.186;5.720;2023-01-19T14:34:42;6.10;;;2.92;;
52974;SDS011;38839;45.186;5.720;2023-01-19T14:37:36;4.43;;;2.70;;
52974;SDS011;38839;45.186;5.720;2023-01-19T14:42:37;5.40;;;3.17;;
52974;SDS011;38839;45.186;5.720;2023-01-19T14:45:32;4.10;;;2.58;;
52974;SDS011;38839;45.186;5.720;2023-01-19T14:47:59;3.95;;;2.42;;
52974;SDS011;38839;45.186;5.720;2023-01-19T14:50:29;6.00;;;2.63;;
52974;SDS011;38839;45.186;5.720;2023-01-19T14:52:58;7.53;;;3.15;;
52974;SDS011;38839;45.186;5.720;2023-01-19T14:55:34;6.25;;;3.28;;
52974;SDS011;38839;45.186;5.720;2023-01-19T14:58:10;4.60;;;2.92;;
52974;SDS011;38839;45.186;5.720;2023-01-19T15:00:37;6.22;;;3.28;;
52974;SDS011;38839;45.186;5.720;2023-01-19T15:03:04;5.57;;;3.15;;
52974;SDS011;38839;45.186;5.720;2023-01-19T15:05:30;5.80;;;3.17;;
52974;SDS011;38839;45.186;5.720;2023-01-19T15:07:56;5.47;;;3.80;;
52974;SDS011;38839;45.186;5.720;2023-01-19T15:10:22;6.68;;;2.85;;
52974;SDS011;38839;45.186;5.720;2023-01-19T15:12:49;5.28;;;3.30;;
52974;SDS011;38839;45.186;5.720;2023-01-19T15:15:17;8.35;;;3.60;;
52974;SDS011;38839;45.186;5.720;2023-01-19T15:17:46;5.75;;;3.00;;
52974;SDS011;38839;45.186;5.720;2023-01-19T15:20:17;7.13;;;3.55;;
52974;SDS011;38839;45.186;5.720;2023-01-19T15:22:43;6.45;;;3.08;;
52974;SDS011;38839;45.186;5.720;2023-01-19T15:25:16;5.65;;;3.40;;
52974;SDS011;38839;45.186;5.720;2023-01-19T15:27:44;5.95;;;3.58;;
52974;SDS011;38839;45.186;5.720;2023-01-19T15:30:12;6.63;;;3.72;;
52974;SDS011;38839;45.186;5.720;2023-01-19T15:32:38;5.55;;;3.58;;
52974;SDS011;38839;45.186;5.720;2023-01-19T15:35:11;6.10;;;3.53;;
52974;SDS011;38839;45.186;5.720;2023-01-19T15:37:38;5.90;;;3.47;;
52974;SDS011;38839;45.186;5.720;2023-01-19T15:40:03;7.25;;;3.70;;
52974;SDS011;38839;45.186;5.720;2023-01-19T15:42:29;7.57;;;3.63;;
52974;SDS011;38839;45.186;5.720;2023-01-19T15:44:55;6.25;;;3.40;;
52974;SDS011;38839;45.186;5.720;2023-01-19T15:47:20;4.88;;;3.08;;
52974;SDS011;38839;45.186;5.720;2023-01-19T15:49:46;5.93;;;3.65;;
52974;SDS011;38839;45.186;5.720;2023-01-19T15:52:11;7.95;;;3.80;;
52974;SDS011;38839;45.186;5.720;2023-01-19T15:54:36;6.00;;;3.58;;
52974;SDS011;38839;45.186;5.720;2023-01-19T15:57:02;7.53;;;3.35;;
52974;SDS011;38839;45.186;5.720;2023-01-19T15:59:27;5.20;;;3.40;;
52974;SDS011;38839;45.186;5.720;2023-01-19T16:01:52;6.13;;;3.60;;
52974;SDS011;38839;45.186;5.720;2023-01-19T16:04:18;6.72;;;3.83;;
52974;SDS011;38839;45.186;5.720;2023-01-19T16:06:43;7.05;;;3.30;;
52974;SDS011;38839;45.186;5.720;2023-01-19T16:09:09;4.30;;;3.03;;
52974;SDS011;38839;45.186;5.720;2023-01-19T16:11:37;5.68;;;3.50;;
52974;SDS011;38839;45.186;5.720;2023-01-19T16:14:03;7.75;;;2.85;;
52974;SDS011;38839;45.186;5.720;2023-01-19T16:16:28;3.85;;;2.20;;
52974;SDS011;38839;45.186;5.720;2023-01-19T16:18:54;5.38;;;2.92;;
52974;SDS011;38839;45.186;5.720;2023-01-19T16:21:20;5.00;;;2.97;;
52974;SDS011;38839;45.186;5.720;2023-01-19T16:23:46;7.30;;;2.72;;
52974;SDS011;38839;45.186;5.720;2023-01-19T16:28:48;6.90;;;2.80;;
52974;SDS011;38839;45.186;5.720;2023-01-19T16:31:14;5.82;;;2.80;;
52974;SDS011;38839;45.186;5.720;2023-01-19T16:33:40;3.60;;;2.42;;
52974;SDS011;38839;45.186;5.720;2023-01-19T16:36:25;6.68;;;3.30;;
52974;SDS011;38839;45.186;5.720;2023-01-19T16:38:53;3.83;;;2.75;;
52974;SDS011;38839;45.186;5.720;2023-01-19T16:41:21;7.00;;;3.00;;
52974;SDS011;38839;45.186;5.720;2023-01-19T16:43:53;5.75;;;2.90;;
52974;SDS011;38839;45.186;5.720;2023-01-19T16:46:30;4.13;;;2.33;;
52974;SDS011;38839;45.186;5.720;2023-01-19T16:49:04;4.28;;;2.55;;
52974;SDS011;38839;45.186;5.720;2023-01-19T16:51:50;4.68;;;3.08;;
52974;SDS011;38839;45.186;5.720;2023-01-19T16:54:20;5.95;;;3.53;;
52974;SDS011;38839;45.186;5.720;2023-01-19T16:56:47;6.75;;;3.63;;
52974;SDS011;38839;45.186;5.720;2023-01-19T16:59:14;5.68;;;3.47;;
52974;SDS011;38839;45.186;5.720;2023-01-19T17:01:41;6.03;;;3.42;;
52974;SDS011;38839;45.186;5.720;2023-01-19T17:04:08;6.30;;;3.47;;
52974;SDS011;38839;45.186;5.720;2023-01-19T17:06:34;5.82;;;3.20;;
52974;SDS011;38839;45.186;5.720;2023-01-19T17:08:59;4.88;;;3.20;;
52974;SDS011;38839;45.186;5.720;2023-01-19T17:11:26;4.32;;;2.95;;
52974;SDS011;38839;45.186;5.720;2023-01-19T17:13:53;5.68;;;3.45;;
52974;SDS011;38839;45.186;5.720;2023-01-19T17:16:21;6.22;;;3.35;;
52974;SDS011;38839;45.186;5.720;2023-01-19T17:18:47;6.15;;;3.53;;
52974;SDS011;38839;45.186;5.720;2023-01-19T17:21:12;5.38;;;3.53;;
52974;SDS011;38839;45.186;5.720;2023-01-19T17:23:42;6.85;;;3.80;;
52974;SDS011;38839;45.186;5.720;2023-01-19T17:26:08;6.32;;;4.00;;
52974;SDS011;38839;45.186;5.720;2023-01-19T17:28:34;6.25;;;3.85;;
52974;SDS011;38839;45.186;5.720;2023-01-19T17:31:07;4.55;;;3.15;;
52974;SDS011;38839;45.186;5.720;2023-01-19T17:33:34;7.03;;;3.50;;
52974;SDS011;38839;45.186;5.720;2023-01-19T17:36:04;7.28;;;3.75;;
52974;SDS011;38839;45.186;5.720;2023-01-19T17:38:32;6.93;;;3.63;;
52974;SDS011;38839;45.186;5.720;2023-01-19T17:40:57;6.03;;;3.40;;
52974;SDS011;38839;45.186;5.720;2023-01-19T17:43:23;7.53;;;3.60;;
52974;SDS011;38839;45.186;5.720;2023-01-19T17:45:48;5.68;;;3.40;;
52974;SDS011;38839;45.186;5.720;2023-01-19T17:48:14;6.15;;;3.50;;
52974;SDS011;38839;45.186;5.720;2023-01-19T17:50:41;5.53;;;3.35;;
52974;SDS011;38839;45.186;5.720;2023-01-19T17:53:07;6.38;;;3.70;;
52974;SDS011;38839;45.186;5.720;2023-01-19T17:55:32;5.25;;;3.63;;
52974;SDS011;38839;45.186;5.720;2023-01-19T17:57:58;8.98;;;3.70;;
52974;SDS011;38839;45.186;5.720;2023-01-19T18:00:24;6.13;;;4.30;;
52974;SDS011;38839;45.186;5.720;2023-01-19T18:02:50;9.60;;;4.50;;
52974;SDS011;38839;45.186;5.720;2023-01-19T18:05:16;8.95;;;4.43;;
52974;SDS011;38839;45.186;5.720;2023-01-19T18:07:41;6.82;;;4.07;;
52974;SDS011;38839;45.186;5.720;2023-01-19T18:10:07;9.07;;;4.70;;
52974;SDS011;38839;45.186;5.720;2023-01-19T18:12:33;6.40;;;4.18;;
52974;SDS011;38839;45.186;5.720;2023-01-19T18:14:59;8.35;;;4.40;;
52974;SDS011;38839;45.186;5.720;2023-01-19T18:17:24;8.45;;;4.72;;
52974;SDS011;38839;45.186;5.720;2023-01-19T18:19:50;6.45;;;4.13;;
52974;SDS011;38839;45.186;5.720;2023-01-19T18:22:15;11.00;;;6.05;;
52974;SDS011;38839;45.186;5.720;2023-01-19T18:24:41;9.65;;;4.25;;
52974;SDS011;38839;45.186;5.720;2023-01-19T18:27:08;7.00;;;3.83;;
52974;SDS011;38839;45.186;5.720;2023-01-19T18:29:34;10.45;;;4.05;;
52974;SDS011;38839;45.186;5.720;2023-01-19T18:31:59;7.05;;;4.13;;
52974;SDS011;38839;45.186;5.720;2023-01-19T18:34:24;7.45;;;4.28;;
52974;SDS011;38839;45.186;5.720;2023-01-19T18:36:50;7.55;;;4.18;;
52974;SDS011;38839;45.186;5.720;2023-01-19T18:39:15;6.45;;;4.25;;
52974;SDS011;38839;45.186;5.720;2023-01-19T18:41:41;8.30;;;4.38;;
52974;SDS011;38839;45.186;5.720;2023-01-19T18:44:07;9.00;;;4.80;;
52974;SDS011;38839;45.186;5.720;2023-01-19T18:46:34;7.63;;;3.90;;
52974;SDS011;38839;45.186;5.720;2023-01-19T18:48:59;8.27;;;4.85;;
52974;SDS011;38839;45.186;5.720;2023-01-19T18:51:25;11.63;;;4.93;;
52974;SDS011;38839;45.186;5.720;2023-01-19T18:53:50;7.60;;;4.88;;
52974;SDS011;38839;45.186;5.720;2023-01-19T18:56:15;8.18;;;4.78;;
52974;SDS011;38839;45.186;5.720;2023-01-19T18:58:41;9.80;;;4.95;;
52974;SDS011;38839;45.186;5.720;2023-01-19T19:01:18;7.28;;;4.43;;
52974;SDS011;38839;45.186;5.720;2023-01-19T19:03:48;10.23;;;4.80;;
52974;SDS011;38839;45.186;5.720;2023-01-19T19:06:13;8.88;;;4.50;;
52974;SDS011;38839;45.186;5.720;2023-01-19T19:08:40;8.70;;;4.82;;
52974;SDS011;38839;45.186;5.720;2023-01-19T19:11:08;9.55;;;4.55;;
52974;SDS011;38839;45.186;5.720;2023-01-19T19:13:34;6.25;;;4.30;;
52974;SDS011;38839;45.186;5.720;2023-01-19T19:16:05;7.63;;;4.15;;
52974;SDS011;38839;45.186;5.720;2023-01-19T19:18:33;10.82;;;4.57;;
52974;SDS011;38839;45.186;5.720;2023-01-19T19:21:06;6.97;;;4.32;;
52974;SDS011;38839;45.186;5.720;2023-01-19T19:23:35;10.65;;;4.72;;
52974;SDS011;38839;45.186;5.720;2023-01-19T19:26:05;6.43;;;3.80;;
52974;SDS011;38839;45.186;5.720;2023-01-19T19:28:33;6.78;;;4.20;;
52974;SDS011;38839;45.186;5.720;2023-01-19T19:33:35;9.95;;;4.80;;
52974;SDS011;38839;45.186;5.720;2023-01-19T19:36:02;6.38;;;4.43;;
52974;SDS011;38839;45.186;5.720;2023-01-19T19:38:28;9.27;;;5.07;;
52974;SDS011;38839;45.186;5.720;2023-01-19T19:40:53;8.05;;;4.13;;
52974;SDS011;38839;45.186;5.720;2023-01-19T19:43:21;9.88;;;5.72;;
52974;SDS011;38839;45.186;5.720;2023-01-19T19:45:59;8.80;;;4.53;;
52974;SDS011;38839;45.186;5.720;2023-01-19T19:48:27;8.40;;;4.68;;
52974;SDS011;38839;45.186;5.720;2023-01-19T19:50:53;8.48;;;4.80;;
52974;SDS011;38839;45.186;5.720;2023-01-19T19:53:20;14.23;;;8.40;;
52974;SDS011;38839;45.186;5.720;2023-01-19T19:55:59;11.80;;;5.57;;
52974;SDS011;38839;45.186;5.720;2023-01-19T19:58:26;6.93;;;4.17;;
52974;SDS011;38839;45.186;5.720;2023-01-19T20:00:51;8.38;;;4.47;;
52974;SDS011;38839;45.186;5.720;2023-01-19T20:03:17;11.43;;;4.75;;
52974;SDS011;38839;45.186;5.720;2023-01-19T20:05:43;10.02;;;4.97;;